sensor_id;sensor_type;location;lat;lon;timestamp;pressure;altitude;pressure_sealevel;temperature;humidity
61026;BME280;46911;32.650;-16.902;2024-03-22T00:01:51;101219.47;;;14.52;74.40
61026;BME280;46911;32.650;-16.902;2024-03-22T00:03:57;101216.94;;;14.50;74.47
61026;BME280;46911;32.650;-16.902;2024-03-22T00:05:58;101207.13;;;14.38;74.72
61026;BME280;46911;32.650;-16.902;2024-03-22T00:08:02;101174.84;;;14.15;74.89
61026;BME280;46911;32.650;-16.902;2024-03-22T00:10:06;101195.25;;;14.18;75.11
61026;BME280;46911;32.650;-16.902;2024-03-22T00:12:10;101192.66;;;14.16;75.82
61026;BME280;46911;32.650;-16.902;2024-03-22T00:14:14;101190.31;;;14.12;76.71
61026;BME280;46911;32.650;-16.902;2024-03-22T00:16:17;101177.66;;;13.89;76.84
61026;BME280;46911;32.650;-16.902;2024-03-22T00:18:18;101168.22;;;13.72;77.80
61026;BME280;46911;32.650;-16.902;2024-03-22T00:20:21;101171.56;;;13.63;78.10
61026;BME280;46911;32.650;-16.902;2024-03-22T00:22:28;101169.63;;;13.65;78.14
61026;BME280;46911;32.650;-16.902;2024-03-22T00:24:33;101180.75;;;13.72;77.82
61026;BME280;46911;32.650;-16.902;2024-03-22T00:26:34;101175.63;;;13.69;78.72
61026;BME280;46911;32.650;-16.902;2024-03-22T00:28:35;101160.31;;;13.58;78.43
61026;BME280;46911;32.650;-16.902;2024-03-22T00:30:41;101166.94;;;13.65;78.13
61026;BME280;46911;32.650;-16.902;2024-03-22T00:32:42;101142.53;;;13.57;75.51
61026;BME280;46911;32.650;-16.902;2024-03-22T00:34:45;101153.19;;;13.70;69.96
61026;BME280;46911;32.650;-16.902;2024-03-22T00:36:49;101164.59;;;14.09;65.71
61026;BME280;46911;32.650;-16.902;2024-03-22T00:38:53;101160.88;;;14.23;65.32
61026;BME280;46911;32.650;-16.902;2024-03-22T00:40:53;101147.44;;;14.23;66.81
61026;BME280;46911;32.650;-16.902;2024-03-22T00:42:54;101148.56;;;14.32;66.82
61026;BME280;46911;32.650;-16.902;2024-03-22T00:44:58;101148.56;;;14.32;66.70
61026;BME280;46911;32.650;-16.902;2024-03-22T00:46:59;101115.97;;;14.14;66.93
61026;BME280;46911;32.650;-16.902;2024-03-22T00:49:00;101168.84;;;14.47;67.41
61026;BME280;46911;32.650;-16.902;2024-03-22T00:51:01;101171.66;;;14.46;67.76
61026;BME280;46911;32.650;-16.902;2024-03-22T00:53:09;101165.53;;;14.44;68.87
61026;BME280;46911;32.650;-16.902;2024-03-22T00:55:14;101172.50;;;14.46;70.35
61026;BME280;46911;32.650;-16.902;2024-03-22T00:57:22;101163.59;;;14.46;70.91
61026;BME280;46911;32.650;-16.902;2024-03-22T00:59:25;101162.94;;;14.31;71.71
61026;BME280;46911;32.650;-16.902;2024-03-22T01:01:29;101165.59;;;14.19;72.98
61026;BME280;46911;32.650;-16.902;2024-03-22T01:03:32;101158.88;;;14.14;71.87
61026;BME280;46911;32.650;-16.902;2024-03-22T01:05:36;101168.28;;;14.19;72.04
61026;BME280;46911;32.650;-16.902;2024-03-22T01:07:37;101148.72;;;14.06;72.16
61026;BME280;46911;32.650;-16.902;2024-03-22T01:09:41;101153.41;;;14.15;73.33
61026;BME280;46911;32.650;-16.902;2024-03-22T01:11:46;101171.09;;;14.18;73.65
61026;BME280;46911;32.650;-16.902;2024-03-22T01:13:49;101143.56;;;14.03;73.90
61026;BME280;46911;32.650;-16.902;2024-03-22T01:15:50;101146.16;;;14.04;73.24
61026;BME280;46911;32.650;-16.902;2024-03-22T01:17:52;101157.97;;;14.02;73.78
61026;BME280;46911;32.650;-16.902;2024-03-22T01:19:53;101169.31;;;14.05;74.29
61026;BME280;46911;32.650;-16.902;2024-03-22T01:21:54;101168.84;;;14.00;74.09
61026;BME280;46911;32.650;-16.902;2024-03-22T01:23:58;101161.13;;;13.96;74.37
61026;BME280;46911;32.650;-16.902;2024-03-22T01:26:01;101180.03;;;14.05;74.47
61026;BME280;46911;32.650;-16.902;2024-03-22T01:28:05;101179.19;;;14.05;74.84
61026;BME280;46911;32.650;-16.902;2024-03-22T01:30:06;101178.22;;;14.06;74.68
61026;BME280;46911;32.650;-16.902;2024-03-22T01:32:07;101153.69;;;13.99;75.69
61026;BME280;46911;32.650;-16.902;2024-03-22T01:34:11;101138.44;;;14.00;75.48
61026;BME280;46911;32.650;-16.902;2024-03-22T01:36:12;101140.16;;;14.01;74.95
61026;BME280;46911;32.650;-16.902;2024-03-22T01:38:13;101144.56;;;14.02;75.47
61026;BME280;46911;32.650;-16.902;2024-03-22T01:40:13;101159.22;;;14.09;76.04
61026;BME280;46911;32.650;-16.902;2024-03-22T01:42:17;101139.78;;;13.94;76.08
61026;BME280;46911;32.650;-16.902;2024-03-22T01:44:18;101158.81;;;14.02;76.50
61026;BME280;46911;32.650;-16.902;2024-03-22T01:46:22;101123.75;;;13.81;76.68
61026;BME280;46911;32.650;-16.902;2024-03-22T01:48:26;101131.22;;;13.89;77.04
61026;BME280;46911;32.650;-16.902;2024-03-22T01:50:29;101151.75;;;14.01;76.94
61026;BME280;46911;32.650;-16.902;2024-03-22T01:52:36;101125.63;;;13.92;76.54
61026;BME280;46911;32.650;-16.902;2024-03-22T01:54:40;101142.63;;;14.04;77.09
61026;BME280;46911;32.650;-16.902;2024-03-22T01:56:42;101132.75;;;14.04;77.28
61026;BME280;46911;32.650;-16.902;2024-03-22T01:58:51;101133.72;;;14.03;77.37
61026;BME280;46911;32.650;-16.902;2024-03-22T02:00:54;101155.19;;;14.03;77.50
61026;BME280;46911;32.650;-16.902;2024-03-22T02:02:58;101127.56;;;13.90;77.21
61026;BME280;46911;32.650;-16.902;2024-03-22T02:04:59;101140.28;;;13.99;77.44
61026;BME280;46911;32.650;-16.902;2024-03-22T02:07:02;101118.19;;;13.84;76.97
61026;BME280;46911;32.650;-16.902;2024-03-22T02:09:04;101133.34;;;13.97;76.99
61026;BME280;46911;32.650;-16.902;2024-03-22T02:11:09;101104.66;;;13.86;76.68
61026;BME280;46911;32.650;-16.902;2024-03-22T02:13:10;101115.53;;;13.96;76.20
61026;BME280;46911;32.650;-16.902;2024-03-22T02:15:11;101122.94;;;13.92;76.23
61026;BME280;46911;32.650;-16.902;2024-03-22T02:17:15;101129.44;;;14.01;76.19
61026;BME280;46911;32.650;-16.902;2024-03-22T02:19:22;101135.66;;;14.01;76.01
61026;BME280;46911;32.650;-16.902;2024-03-22T02:21:23;101109.78;;;13.89;76.10
61026;BME280;46911;32.650;-16.902;2024-03-22T02:23:35;101135.88;;;13.98;76.04
61026;BME280;46911;32.650;-16.902;2024-03-22T02:25:39;101071.91;;;13.69;76.36
61026;BME280;46911;32.650;-16.902;2024-03-22T02:27:39;101120.81;;;14.09;75.56
61026;BME280;46911;32.650;-16.902;2024-03-22T02:29:40;101119.56;;;14.01;75.74
61026;BME280;46911;32.650;-16.902;2024-03-22T02:31:44;101123.44;;;13.97;75.93
61026;BME280;46911;32.650;-16.902;2024-03-22T02:33:49;101101.97;;;13.86;76.02
61026;BME280;46911;32.650;-16.902;2024-03-22T02:35:55;101096.03;;;13.94;76.09
61026;BME280;46911;32.650;-16.902;2024-03-22T02:37:57;101068.06;;;13.85;76.55
61026;BME280;46911;32.650;-16.902;2024-03-22T02:40:02;101068.31;;;13.82;76.50
61026;BME280;46911;32.650;-16.902;2024-03-22T02:42:06;101075.88;;;13.88;76.70
61026;BME280;46911;32.650;-16.902;2024-03-22T02:44:09;101093.44;;;13.92;77.58
61026;BME280;46911;32.650;-16.902;2024-03-22T02:46:10;101086.28;;;13.93;77.24
61026;BME280;46911;32.650;-16.902;2024-03-22T02:48:11;101065.13;;;13.77;77.54
61026;BME280;46911;32.650;-16.902;2024-03-22T02:50:12;101087.81;;;13.84;77.73
61026;BME280;46911;32.650;-16.902;2024-03-22T02:52:15;101076.56;;;13.79;77.82
61026;BME280;46911;32.650;-16.902;2024-03-22T02:54:16;101075.59;;;13.80;78.35
61026;BME280;46911;32.650;-16.902;2024-03-22T02:56:21;101063.16;;;13.79;78.37
61026;BME280;46911;32.650;-16.902;2024-03-22T02:58:25;101033.66;;;13.67;77.62
61026;BME280;46911;32.650;-16.902;2024-03-22T03:00:26;101046.34;;;13.77;77.79
61026;BME280;46911;32.650;-16.902;2024-03-22T03:02:29;101036.22;;;13.69;78.38
61026;BME280;46911;32.650;-16.902;2024-03-22T03:04:30;101047.84;;;13.81;78.33
61026;BME280;46911;32.650;-16.902;2024-03-22T03:06:33;101037.94;;;13.81;78.43
61026;BME280;46911;32.650;-16.902;2024-03-22T03:08:38;101016.25;;;13.73;78.88
61026;BME280;46911;32.650;-16.902;2024-03-22T03:10:44;101015.53;;;13.71;79.20
61026;BME280;46911;32.650;-16.902;2024-03-22T03:12:48;101020.91;;;13.82;78.72
61026;BME280;46911;32.650;-16.902;2024-03-22T03:14:53;101006.53;;;13.83;78.23
61026;BME280;46911;32.650;-16.902;2024-03-22T03:16:57;100981.63;;;13.70;78.29
61026;BME280;46911;32.650;-16.902;2024-03-22T03:19:00;100987.84;;;13.70;78.22
61026;BME280;46911;32.650;-16.902;2024-03-22T03:21:04;101012.00;;;13.82;77.85
61026;BME280;46911;32.650;-16.902;2024-03-22T03:23:08;101022.38;;;13.86;77.53
61026;BME280;46911;32.650;-16.902;2024-03-22T03:25:11;100987.38;;;13.77;77.60
61026;BME280;46911;32.650;-16.902;2024-03-22T03:27:12;100988.97;;;13.79;77.56
61026;BME280;46911;32.650;-16.902;2024-03-22T03:29:17;101006.28;;;13.86;77.66
61026;BME280;46911;32.650;-16.902;2024-03-22T03:31:18;101009.09;;;13.85;77.69
61026;BME280;46911;32.650;-16.902;2024-03-22T03:33:23;101008.13;;;13.86;77.28
61026;BME280;46911;32.650;-16.902;2024-03-22T03:35:26;101008.97;;;13.86;76.81
61026;BME280;46911;32.650;-16.902;2024-03-22T03:37:34;101014.56;;;13.83;77.10
61026;BME280;46911;32.650;-16.902;2024-03-22T03:39:38;100981.63;;;13.70;77.16
61026;BME280;46911;32.650;-16.902;2024-03-22T03:41:42;100990.66;;;13.69;77.11
61026;BME280;46911;32.650;-16.902;2024-03-22T03:43:43;100992.56;;;13.67;77.17
61026;BME280;46911;32.650;-16.902;2024-03-22T03:45:44;101010.78;;;13.86;77.22
61026;BME280;46911;32.650;-16.902;2024-03-22T03:47:45;101016.50;;;13.81;76.98
61026;BME280;46911;32.650;-16.902;2024-03-22T03:49:49;101018.84;;;13.86;76.67
61026;BME280;46911;32.650;-16.902;2024-03-22T03:51:56;101020.66;;;13.85;76.57
61026;BME280;46911;32.650;-16.902;2024-03-22T03:54:03;101008.13;;;13.86;76.31
61026;BME280;46911;32.650;-16.902;2024-03-22T03:56:04;100989.19;;;13.76;76.11
61026;BME280;46911;32.650;-16.902;2024-03-22T03:58:05;100989.81;;;13.80;76.13
61026;BME280;46911;32.650;-16.902;2024-03-22T04:00:08;100983.81;;;13.76;76.00
61026;BME280;46911;32.650;-16.902;2024-03-22T04:02:09;100978.38;;;13.78;76.21
61026;BME280;46911;32.650;-16.902;2024-03-22T04:04:10;100980.69;;;13.82;76.37
61026;BME280;46911;32.650;-16.902;2024-03-22T04:06:16;100997.66;;;13.94;75.95
61026;BME280;46911;32.650;-16.902;2024-03-22T04:08:17;100994.97;;;13.94;75.64
61026;BME280;46911;32.650;-16.902;2024-03-22T04:10:18;100965.44;;;13.83;75.88
61026;BME280;46911;32.650;-16.902;2024-03-22T04:12:21;100989.47;;;13.96;74.95
61026;BME280;46911;32.650;-16.902;2024-03-22T04:14:22;100973.75;;;13.91;75.19
61026;BME280;46911;32.650;-16.902;2024-03-22T04:16:25;100983.03;;;13.98;75.69
61026;BME280;46911;32.650;-16.902;2024-03-22T04:18:26;100977.06;;;14.06;76.93
61026;BME280;46911;32.650;-16.902;2024-03-22T04:20:27;100981.09;;;14.12;76.45
61026;BME280;46911;32.650;-16.902;2024-03-22T04:22:30;100967.69;;;14.00;76.85
61026;BME280;46911;32.650;-16.902;2024-03-22T04:24:34;100985.72;;;14.10;76.90
61026;BME280;46911;32.650;-16.902;2024-03-22T04:26:37;100984.25;;;14.17;76.32
61026;BME280;46911;32.650;-16.902;2024-03-22T04:28:38;100971.94;;;14.14;76.51
61026;BME280;46911;32.650;-16.902;2024-03-22T04:30:41;100963.28;;;14.11;76.92
61026;BME280;46911;32.650;-16.902;2024-03-22T04:32:42;100960.00;;;14.18;76.90
61026;BME280;46911;32.650;-16.902;2024-03-22T04:34:43;100965.59;;;14.15;78.00
61026;BME280;46911;32.650;-16.902;2024-03-22T04:36:44;100963.78;;;14.04;78.95
61026;BME280;46911;32.650;-16.902;2024-03-22T04:38:47;100961.69;;;13.97;80.51
61026;BME280;46911;32.650;-16.902;2024-03-22T04:40:48;100967.53;;;13.90;81.40
61026;BME280;46911;32.650;-16.902;2024-03-22T04:42:52;100957.88;;;13.77;82.74
61026;BME280;46911;32.650;-16.902;2024-03-22T04:44:53;100961.28;;;13.67;83.23
61026;BME280;46911;32.650;-16.902;2024-03-22T04:46:56;100940.41;;;13.48;84.16
61026;BME280;46911;32.650;-16.902;2024-03-22T04:49:02;100933.19;;;13.37;85.22
61026;BME280;46911;32.650;-16.902;2024-03-22T04:51:03;100956.94;;;13.42;85.82
61026;BME280;46911;32.650;-16.902;2024-03-22T04:53:09;100951.47;;;13.44;86.88
61026;BME280;46911;32.650;-16.902;2024-03-22T04:55:12;100965.34;;;13.37;87.90
61026;BME280;46911;32.650;-16.902;2024-03-22T04:57:16;100956.66;;;13.34;88.42
61026;BME280;46911;32.650;-16.902;2024-03-22T04:59:16;100945.16;;;13.20;89.24
61026;BME280;46911;32.650;-16.902;2024-03-22T05:01:17;100965.00;;;13.29;89.45
61026;BME280;46911;32.650;-16.902;2024-03-22T05:03:24;100935.13;;;13.11;90.04
61026;BME280;46911;32.650;-16.902;2024-03-22T05:05:25;100956.94;;;13.18;90.63
61026;BME280;46911;32.650;-16.902;2024-03-22T05:07:25;100940.59;;;13.10;91.09
61026;BME280;46911;32.650;-16.902;2024-03-22T05:09:26;100950.44;;;13.09;92.15
61026;BME280;46911;32.650;-16.902;2024-03-22T05:11:27;100947.16;;;13.05;91.65
61026;BME280;46911;32.650;-16.902;2024-03-22T05:13:33;100934.94;;;13.01;92.36
61026;BME280;46911;32.650;-16.902;2024-03-22T05:15:37;100938.13;;;13.06;93.49
61026;BME280;46911;32.650;-16.902;2024-03-22T05:17:42;100915.66;;;12.85;93.76
61026;BME280;46911;32.650;-16.902;2024-03-22T05:19:46;100928.47;;;12.93;94.59
61026;BME280;46911;32.650;-16.902;2024-03-22T05:21:52;100921.53;;;12.90;94.79
61026;BME280;46911;32.650;-16.902;2024-03-22T05:23:55;100915.22;;;12.91;94.92
61026;BME280;46911;32.650;-16.902;2024-03-22T05:25:55;100909.97;;;12.89;95.23
61026;BME280;46911;32.650;-16.902;2024-03-22T05:28:02;100903.06;;;12.74;95.52
61026;BME280;46911;32.650;-16.902;2024-03-22T05:30:06;100892.19;;;12.64;96.13
61026;BME280;46911;32.650;-16.902;2024-03-22T05:32:11;100906.03;;;12.82;96.39
61026;BME280;46911;32.650;-16.902;2024-03-22T05:34:18;100901.34;;;12.73;96.76
61026;BME280;46911;32.650;-16.902;2024-03-22T05:36:19;100898.34;;;12.78;97.15
61026;BME280;46911;32.650;-16.902;2024-03-22T05:38:19;100873.69;;;12.61;97.25
61026;BME280;46911;32.650;-16.902;2024-03-22T05:40:22;100892.59;;;12.71;97.44
61026;BME280;46911;32.650;-16.902;2024-03-22T05:42:23;100891.53;;;12.73;97.52
61026;BME280;46911;32.650;-16.902;2024-03-22T05:44:27;100882.75;;;12.71;97.35
61026;BME280;46911;32.650;-16.902;2024-03-22T05:46:30;100857.41;;;12.64;97.60
61026;BME280;46911;32.650;-16.902;2024-03-22T05:48:31;100819.72;;;12.43;97.61
61026;BME280;46911;32.650;-16.902;2024-03-22T05:50:37;100845.72;;;12.65;97.61
61026;BME280;46911;32.650;-16.902;2024-03-22T05:52:38;100873.78;;;12.84;97.21
61026;BME280;46911;32.650;-16.902;2024-03-22T05:54:39;100854.25;;;12.70;96.97
61026;BME280;46911;32.650;-16.902;2024-03-22T05:56:45;100868.66;;;12.81;96.97
61026;BME280;46911;32.650;-16.902;2024-03-22T05:58:52;100850.31;;;12.87;96.08
61026;BME280;46911;32.650;-16.902;2024-03-22T06:00:56;100880.03;;;12.96;95.75
61026;BME280;46911;32.650;-16.902;2024-03-22T06:02:57;100870.91;;;12.87;96.01
61026;BME280;46911;32.650;-16.902;2024-03-22T06:05:00;100859.91;;;12.79;96.38
61026;BME280;46911;32.650;-16.902;2024-03-22T06:07:03;100871.63;;;12.89;96.27
61026;BME280;46911;32.650;-16.902;2024-03-22T06:09:07;100859.91;;;12.79;96.66
61026;BME280;46911;32.650;-16.902;2024-03-22T06:11:12;100850.38;;;12.75;96.99
61026;BME280;46911;32.650;-16.902;2024-03-22T06:13:15;100873.56;;;12.87;97.72
61026;BME280;46911;32.650;-16.902;2024-03-22T06:15:18;100876.25;;;12.87;97.55
61026;BME280;46911;32.650;-16.902;2024-03-22T06:17:19;100854.78;;;12.76;97.96
61026;BME280;46911;32.650;-16.902;2024-03-22T06:19:19;100855.53;;;12.78;98.37
61026;BME280;46911;32.650;-16.902;2024-03-22T06:21:20;100875.50;;;12.85;98.34
61026;BME280;46911;32.650;-16.902;2024-03-22T06:23:26;100876.94;;;12.78;98.59
61026;BME280;46911;32.650;-16.902;2024-03-22T06:25:27;100887.06;;;12.85;99.07
61026;BME280;46911;32.650;-16.902;2024-03-22T06:27:30;100884.41;;;12.85;98.73
61026;BME280;46911;32.650;-16.902;2024-03-22T06:29:33;100885.19;;;12.75;97.92
61026;BME280;46911;32.650;-16.902;2024-03-22T06:31:34;100911.06;;;12.87;98.81
61026;BME280;46911;32.650;-16.902;2024-03-22T06:33:35;100901.81;;;12.91;99.26
61026;BME280;46911;32.650;-16.902;2024-03-22T06:35:41;100864.97;;;12.70;99.59
61026;BME280;46911;32.650;-16.902;2024-03-22T06:37:46;100891.03;;;12.80;100.00
61026;BME280;46911;32.650;-16.902;2024-03-22T06:39:52;100889.81;;;12.72;100.00
61026;BME280;46911;32.650;-16.902;2024-03-22T06:41:53;100895.59;;;12.66;100.00
61026;BME280;46911;32.650;-16.902;2024-03-22T06:43:57;100914.84;;;12.71;100.00
61026;BME280;46911;32.650;-16.902;2024-03-22T06:46:00;100895.44;;;12.56;100.00
61026;BME280;46911;32.650;-16.902;2024-03-22T06:48:01;100898.63;;;12.62;100.00
61026;BME280;46911;32.650;-16.902;2024-03-22T06:50:02;100890.94;;;12.57;100.00
61026;BME280;46911;32.650;-16.902;2024-03-22T06:52:05;100891.03;;;12.55;100.00
61026;BME280;46911;32.650;-16.902;2024-03-22T06:54:09;100863.03;;;12.48;100.00
61026;BME280;46911;32.650;-16.902;2024-03-22T06:56:13;100880.03;;;12.60;100.00
61026;BME280;46911;32.650;-16.902;2024-03-22T06:58:14;100886.09;;;12.62;100.00
61026;BME280;46911;32.650;-16.902;2024-03-22T07:00:17;100870.00;;;12.51;100.00
61026;BME280;46911;32.650;-16.902;2024-03-22T07:02:18;100897.75;;;12.61;100.00
61026;BME280;46911;32.650;-16.902;2024-03-22T07:04:19;100904.00;;;12.62;100.00
61026;BME280;46911;32.650;-16.902;2024-03-22T07:06:20;100882.38;;;12.52;100.00
61026;BME280;46911;32.650;-16.902;2024-03-22T07:08:27;100883.50;;;12.49;100.00
61026;BME280;46911;32.650;-16.902;2024-03-22T07:10:30;100891.16;;;12.54;100.00
61026;BME280;46911;32.650;-16.902;2024-03-22T07:12:36;100907.28;;;12.65;100.00
61026;BME280;46911;32.650;-16.902;2024-03-22T07:14:40;100914.00;;;12.71;100.00
61026;BME280;46911;32.650;-16.902;2024-03-22T07:16:40;100894.13;;;12.62;100.00
61026;BME280;46911;32.650;-16.902;2024-03-22T07:18:46;100905.88;;;12.72;100.00
61026;BME280;46911;32.650;-16.902;2024-03-22T07:20:49;100898.69;;;12.73;100.00
61026;BME280;46911;32.650;-16.902;2024-03-22T07:22:54;100887.13;;;12.72;100.00
61026;BME280;46911;32.650;-16.902;2024-03-22T07:24:58;100888.09;;;12.71;100.00
61026;BME280;46911;32.650;-16.902;2024-03-22T07:26:59;100891.66;;;12.72;100.00
61026;BME280;46911;32.650;-16.902;2024-03-22T07:29:00;100889.94;;;12.71;100.00
61026;BME280;46911;32.650;-16.902;2024-03-22T07:31:05;100894.31;;;12.72;100.00
61026;BME280;46911;32.650;-16.902;2024-03-22T07:33:11;100881.34;;;12.79;100.00
61026;BME280;46911;32.650;-16.902;2024-03-22T07:35:19;100892.53;;;12.84;100.00
61026;BME280;46911;32.650;-16.902;2024-03-22T07:37:20;100906.81;;;12.96;100.00
61026;BME280;46911;32.650;-16.902;2024-03-22T07:39:21;100912.13;;;13.09;100.00
61026;BME280;46911;32.650;-16.902;2024-03-22T07:41:27;100893.63;;;13.17;100.00
61026;BME280;46911;32.650;-16.902;2024-03-22T07:43:28;100877.28;;;13.09;100.00
61026;BME280;46911;32.650;-16.902;2024-03-22T07:45:35;100869.38;;;13.07;100.00
61026;BME280;46911;32.650;-16.902;2024-03-22T07:47:36;100881.47;;;13.24;100.00
61026;BME280;46911;32.650;-16.902;2024-03-22T07:49:38;100878.25;;;13.07;100.00
61026;BME280;46911;32.650;-16.902;2024-03-22T07:51:39;100852.09;;;13.11;100.00
61026;BME280;46911;32.650;-16.902;2024-03-22T07:53:40;100854.69;;;13.24;99.81
61026;BME280;46911;32.650;-16.902;2024-03-22T07:55:41;100863.00;;;13.32;98.79
61026;BME280;46911;32.650;-16.902;2024-03-22T07:57:42;100871.56;;;13.37;97.48
61026;BME280;46911;32.650;-16.902;2024-03-22T07:59:42;100845.88;;;13.46;95.29
61026;BME280;46911;32.650;-16.902;2024-03-22T08:01:44;100861.34;;;13.54;95.83
61026;BME280;46911;32.650;-16.902;2024-03-22T08:03:45;100860.59;;;13.52;96.67
61026;BME280;46911;32.650;-16.902;2024-03-22T08:05:46;100852.56;;;13.52;91.57
61026;BME280;46911;32.650;-16.902;2024-03-22T08:07:53;100870.50;;;13.85;88.78
61026;BME280;46911;32.650;-16.902;2024-03-22T08:09:54;100870.00;;;14.03;86.86
61026;BME280;46911;32.650;-16.902;2024-03-22T08:11:56;100872.44;;;14.17;83.56
61026;BME280;46911;32.650;-16.902;2024-03-22T08:13:57;100857.38;;;14.37;81.75
61026;BME280;46911;32.650;-16.902;2024-03-22T08:16:03;100848.09;;;14.53;80.53
61026;BME280;46911;32.650;-16.902;2024-03-22T08:18:04;100830.84;;;14.67;79.04
61026;BME280;46911;32.650;-16.902;2024-03-22T08:20:13;100836.38;;;14.86;77.80
61026;BME280;46911;32.650;-16.902;2024-03-22T08:22:14;100840.22;;;15.05;76.71
61026;BME280;46911;32.650;-16.902;2024-03-22T08:24:18;100831.22;;;15.16;77.25
61026;BME280;46911;32.650;-16.902;2024-03-22T08:26:23;100822.38;;;15.25;75.73
61026;BME280;46911;32.650;-16.902;2024-03-22T08:28:27;100830.91;;;15.30;76.39
61026;BME280;46911;32.650;-16.902;2024-03-22T08:30:30;100855.31;;;15.48;75.31
61026;BME280;46911;32.650;-16.902;2024-03-22T08:32:31;100845.81;;;15.44;73.57
61026;BME280;46911;32.650;-16.902;2024-03-22T08:34:32;100845.53;;;15.47;74.64
61026;BME280;46911;32.650;-16.902;2024-03-22T08:36:35;100851.91;;;15.67;74.46
61026;BME280;46911;32.650;-16.902;2024-03-22T08:38:36;100838.53;;;15.56;75.34
61026;BME280;46911;32.650;-16.902;2024-03-22T08:40:37;100863.31;;;15.81;75.37
61026;BME280;46911;32.650;-16.902;2024-03-22T08:42:41;100872.00;;;15.94;75.36
61026;BME280;46911;32.650;-16.902;2024-03-22T08:44:45;100875.97;;;16.00;75.46
61026;BME280;46911;32.650;-16.902;2024-03-22T08:46:46;100879.56;;;16.10;74.49
61026;BME280;46911;32.650;-16.902;2024-03-22T08:48:46;100871.91;;;16.15;72.40
61026;BME280;46911;32.650;-16.902;2024-03-22T08:50:50;100882.28;;;16.30;72.56
61026;BME280;46911;32.650;-16.902;2024-03-22T08:52:59;100894.25;;;16.47;72.24
61026;BME280;46911;32.650;-16.902;2024-03-22T08:55:04;100906.28;;;16.52;72.11
61026;BME280;46911;32.650;-16.902;2024-03-22T08:57:07;100887.88;;;16.48;71.50
61026;BME280;46911;32.650;-16.902;2024-03-22T08:59:08;100897.09;;;16.55;72.13
61026;BME280;46911;32.650;-16.902;2024-03-22T09:01:09;100896.56;;;16.61;71.65
61026;BME280;46911;32.650;-16.902;2024-03-22T09:03:12;100913.28;;;16.84;70.29
61026;BME280;46911;32.650;-16.902;2024-03-22T09:05:15;100896.00;;;16.77;69.28
61026;BME280;46911;32.650;-16.902;2024-03-22T09:07:19;100902.69;;;16.93;70.23
61026;BME280;46911;32.650;-16.902;2024-03-22T09:09:23;100898.88;;;17.15;68.12
61026;BME280;46911;32.650;-16.902;2024-03-22T09:11:29;100890.19;;;17.31;68.19
61026;BME280;46911;32.650;-16.902;2024-03-22T09:13:36;100876.69;;;17.40;67.68
61026;BME280;46911;32.650;-16.902;2024-03-22T09:15:37;100892.41;;;17.55;66.30
61026;BME280;46911;32.650;-16.902;2024-03-22T09:17:38;100900.06;;;17.69;66.96
61026;BME280;46911;32.650;-16.902;2024-03-22T09:19:39;100920.28;;;17.93;66.83
61026;BME280;46911;32.650;-16.902;2024-03-22T09:21:40;100914.72;;;18.04;66.79
61026;BME280;46911;32.650;-16.902;2024-03-22T09:23:41;100952.16;;;18.55;67.51
61026;BME280;46911;32.650;-16.902;2024-03-22T09:25:45;100933.75;;;18.58;65.95
61026;BME280;46911;32.650;-16.902;2024-03-22T09:27:47;100967.59;;;19.45;63.12
61026;BME280;46911;32.650;-16.902;2024-03-22T09:29:48;100966.22;;;19.85;60.79
61026;BME280;46911;32.650;-16.902;2024-03-22T09:31:52;100987.41;;;20.16;60.73
61026;BME280;46911;32.650;-16.902;2024-03-22T09:34:00;100974.03;;;20.49;59.57
61026;BME280;46911;32.650;-16.902;2024-03-22T09:36:02;100991.47;;;20.54;57.75
61026;BME280;46911;32.650;-16.902;2024-03-22T09:38:05;100963.22;;;20.57;55.08
61026;BME280;46911;32.650;-16.902;2024-03-22T09:40:07;100987.91;;;20.88;55.28
61026;BME280;46911;32.650;-16.902;2024-03-22T09:42:16;100965.75;;;21.18;53.40
61026;BME280;46911;32.650;-16.902;2024-03-22T09:44:22;100994.25;;;21.96;52.48
61026;BME280;46911;32.650;-16.902;2024-03-22T09:46:24;101003.06;;;22.63;50.23
61026;BME280;46911;32.650;-16.902;2024-03-22T09:48:29;101008.41;;;22.79;47.97
61026;BME280;46911;32.650;-16.902;2024-03-22T09:50:33;101006.84;;;22.93;47.16
61026;BME280;46911;32.650;-16.902;2024-03-22T09:52:38;101028.91;;;22.98;49.24
61026;BME280;46911;32.650;-16.902;2024-03-22T09:54:45;101044.28;;;22.83;51.44
61026;BME280;46911;32.650;-16.902;2024-03-22T09:56:53;101014.16;;;23.24;50.49
61026;BME280;46911;32.650;-16.902;2024-03-22T09:58:57;101026.47;;;23.58;50.98
61026;BME280;46911;32.650;-16.902;2024-03-22T10:01:03;101033.00;;;24.10;49.80
61026;BME280;46911;32.650;-16.902;2024-03-22T10:03:04;101039.16;;;24.87;48.80
61026;BME280;46911;32.650;-16.902;2024-03-22T10:05:09;101059.34;;;25.66;46.28
61026;BME280;46911;32.650;-16.902;2024-03-22T10:07:09;101056.50;;;26.02;44.65
61026;BME280;46911;32.650;-16.902;2024-03-22T10:09:18;101049.59;;;25.56;43.98
61026;BME280;46911;32.650;-16.902;2024-03-22T10:11:19;101049.63;;;24.68;46.79
61026;BME280;46911;32.650;-16.902;2024-03-22T10:13:20;101061.25;;;24.92;49.61
61026;BME280;46911;32.650;-16.902;2024-03-22T10:15:24;101060.66;;;24.22;51.78
61026;BME280;46911;32.650;-16.902;2024-03-22T10:17:31;101076.34;;;23.82;51.07
61026;BME280;46911;32.650;-16.902;2024-03-22T10:19:32;101075.28;;;23.05;52.87
61026;BME280;46911;32.650;-16.902;2024-03-22T10:21:35;101068.94;;;22.81;55.66
61026;BME280;46911;32.650;-16.902;2024-03-22T10:23:36;101072.53;;;23.45;54.96
61026;BME280;46911;32.650;-16.902;2024-03-22T10:25:37;101058.28;;;23.81;52.83